createdAt,value
2023-01-04T00:00:43.966Z,10.40
2023-01-04T00:01:43.796Z,10.50
2023-01-04T00:02:43.987Z,11.30
2023-01-04T00:03:43.905Z,10.70
2023-01-04T00:04:43.768Z,10.90
2023-01-04T00:05:43.751Z,10.30
2023-01-04T00:06:43.748Z,10.50
2023-01-04T00:07:43.712Z,10.30
2023-01-04T00:08:43.736Z,10.90
2023-01-04T00:09:44.592Z,10.80
2023-01-04T00:10:43.821Z,11.60
2023-01-04T00:11:43.673Z,11.70
2023-01-04T00:12:43.651Z,11.90
2023-01-04T00:13:43.739Z,10.60
2023-01-04T00:14:43.637Z,11.30
2023-01-04T00:15:43.716Z,10.90
2023-01-04T00:16:43.649Z,11.00
2023-01-04T00:17:43.563Z,11.30
2023-01-04T00:18:43.684Z,11.30
2023-01-04T00:19:43.917Z,11.40
2023-01-04T00:20:43.566Z,13.70
2023-01-04T00:21:43.517Z,10.90
2023-01-04T00:22:43.534Z,11.50
2023-01-04T00:23:43.527Z,11.60
2023-01-04T00:24:43.828Z,10.70
2023-01-04T00:25:43.497Z,11.30
2023-01-04T00:26:43.491Z,11.40
2023-01-04T00:27:43.442Z,10.90
2023-01-04T00:28:48.378Z,11.10
2023-01-04T00:29:44.440Z,11.50
2023-01-04T00:30:43.425Z,12.20
2023-01-04T00:31:43.416Z,11.60
2023-01-04T00:32:43.372Z,11.60
2023-01-04T00:33:43.446Z,11.70
2023-01-04T00:34:43.373Z,12.30
2023-01-04T00:35:46.179Z,13.10
2023-01-04T00:36:43.350Z,12.80
2023-01-04T00:37:48.285Z,12.40
2023-01-04T00:38:44.374Z,12.50
2023-01-04T00:39:43.533Z,12.60
2023-01-04T00:40:43.296Z,11.70
2023-01-04T00:42:00.196Z,12.10
2023-01-04T00:42:44.282Z,12.80
2023-01-04T00:43:43.261Z,12.30
2023-01-04T00:44:43.237Z,11.80
2023-01-04T00:45:43.285Z,11.90
2023-01-04T00:46:43.553Z,11.60
2023-01-04T00:47:43.197Z,11.60
2023-01-04T00:48:48.814Z,11.90
2023-01-04T00:49:44.150Z,10.80
2023-01-04T00:50:43.168Z,12.20
2023-01-04T00:51:43.160Z,11.00
2023-01-04T00:52:43.149Z,11.70
2023-01-04T00:53:43.169Z,11.30
2023-01-04T00:54:43.113Z,12.20
2023-01-04T00:55:43.098Z,10.60
2023-01-04T00:56:43.095Z,10.90
2023-01-04T00:57:43.121Z,11.20
2023-01-04T00:58:43.114Z,10.70
2023-01-04T00:59:43.060Z,11.00
2023-01-04T01:00:43.351Z,10.70
2023-01-04T01:01:44.139Z,11.10
2023-01-04T01:02:43.186Z,11.30
2023-01-04T01:03:45.050Z,10.70
2023-01-04T01:04:43.007Z,11.40
2023-01-04T01:05:42.966Z,11.50
2023-01-04T01:06:42.962Z,11.70
2023-01-04T01:07:42.951Z,11.10
2023-01-04T01:08:43.253Z,12.10
2023-01-04T01:09:42.920Z,12.00
2023-01-04T01:10:42.914Z,11.70
2023-01-04T01:11:42.895Z,11.00
2023-01-04T01:12:42.895Z,11.20
2023-01-04T01:13:42.945Z,11.60
2023-01-04T01:14:42.916Z,11.50
2023-01-04T01:15:42.835Z,11.10
2023-01-04T01:16:58.866Z,10.70
2023-01-04T01:17:43.892Z,11.40
2023-01-04T01:18:42.837Z,10.10
2023-01-04T01:19:42.777Z,10.90
2023-01-04T01:20:43.033Z,10.00
2023-01-04T01:21:42.761Z,11.00
2023-01-04T01:22:42.744Z,8.70
2023-01-04T01:23:42.776Z,10.10
2023-01-04T01:24:42.724Z,9.40
2023-01-04T01:25:42.715Z,9.30
2023-01-04T01:26:42.675Z,11.10
2023-01-04T01:27:42.686Z,9.80
2023-01-04T01:28:42.701Z,10.00
2023-01-04T01:29:42.645Z,9.50
2023-01-04T01:30:42.929Z,10.00
2023-01-04T01:31:42.731Z,9.90
2023-01-04T01:32:42.619Z,9.40
2023-01-04T01:33:42.599Z,9.70
2023-01-04T01:34:42.628Z,9.70
2023-01-04T01:35:42.568Z,9.50
2023-01-04T01:36:42.595Z,10.20
2023-01-04T01:37:42.560Z,10.10
2023-01-04T01:38:42.549Z,10.20
2023-01-04T01:39:42.619Z,9.70
2023-01-04T01:40:42.522Z,11.20
2023-01-04T01:41:42.809Z,11.00
2023-01-04T01:42:42.483Z,10.30
2023-01-04T01:43:42.491Z,10.60
2023-01-04T01:44:42.493Z,10.60
2023-01-04T01:45:42.433Z,11.50
2023-01-04T01:46:42.482Z,11.50
2023-01-04T01:47:42.437Z,10.80
2023-01-04T01:48:42.409Z,10.10
2023-01-04T01:49:42.411Z,9.60
2023-01-04T01:50:42.395Z,11.20
2023-01-04T01:51:42.371Z,10.60
2023-01-04T01:52:42.353Z,11.40
2023-01-04T01:53:42.381Z,10.80
2023-01-04T01:54:44.484Z,10.60
2023-01-04T01:55:42.392Z,10.60
2023-01-04T01:56:42.293Z,10.60
2023-01-04T01:57:42.299Z,10.80
2023-01-04T01:58:42.303Z,10.80
2023-01-04T01:59:42.251Z,10.80
2023-01-04T02:00:42.257Z,12.00
2023-01-04T02:01:42.354Z,10.50
2023-01-04T02:02:42.515Z,10.50
2023-01-04T02:03:42.283Z,10.90
2023-01-04T02:04:42.187Z,10.40
2023-01-04T02:05:42.196Z,10.90
2023-01-04T02:06:42.180Z,11.00
2023-01-04T02:07:42.417Z,10.70
2023-01-04T02:08:42.157Z,10.60
2023-01-04T02:09:42.151Z,10.90
2023-01-04T02:10:42.143Z,10.50
2023-01-04T02:11:42.087Z,10.00
2023-01-04T02:12:42.086Z,11.00
2023-01-04T02:13:42.121Z,10.60
2023-01-04T02:14:42.101Z,10.40
2023-01-04T02:15:42.066Z,10.60
2023-01-04T02:16:42.091Z,10.80
2023-01-04T02:17:42.035Z,10.00
2023-01-04T02:18:42.109Z,10.50
2023-01-04T02:19:42.045Z,11.00
2023-01-04T02:20:42.068Z,10.60
2023-01-04T02:21:42.017Z,9.70
2023-01-04T02:22:41.964Z,9.90
2023-01-04T02:23:41.955Z,10.10
2023-01-04T02:24:41.943Z,11.70
2023-01-04T02:25:41.931Z,10.80
2023-01-04T02:26:41.919Z,10.70
2023-01-04T02:27:41.891Z,10.30
2023-01-04T02:28:41.881Z,10.80
2023-01-04T02:29:41.944Z,10.20
2023-01-04T02:30:42.173Z,10.40
2023-01-04T02:31:41.898Z,10.50
2023-01-04T02:32:41.838Z,10.90
2023-01-04T02:33:41.813Z,10.80
2023-01-04T02:34:41.808Z,10.40
2023-01-04T02:35:47.606Z,10.50
2023-01-04T02:36:46.938Z,10.70
2023-01-04T02:37:41.766Z,10.70
2023-01-04T02:38:41.789Z,12.10
2023-01-04T02:39:41.769Z,11.70
2023-01-04T02:40:42.027Z,11.00
2023-01-04T02:41:41.712Z,10.00
2023-01-04T02:42:41.708Z,10.30
2023-01-04T02:43:41.719Z,10.80
2023-01-04T02:44:41.694Z,11.60
2023-01-04T02:45:41.660Z,11.40
2023-01-04T02:46:41.695Z,10.90
2023-01-04T02:47:41.640Z,10.90
2023-01-04T02:48:41.669Z,10.10
2023-01-04T02:49:42.459Z,11.00
2023-01-04T02:51:42.232Z,11.10
2023-01-04T02:52:05.439Z,10.70
2023-01-04T02:52:57.089Z,10.90
2023-01-04T02:53:59.043Z,10.50
2023-01-04T02:55:03.593Z,10.80
2023-01-04T02:56:36.995Z,11.00
2023-01-04T02:57:12.149Z,10.70
2023-01-04T02:57:57.533Z,11.30
2023-01-04T02:58:49.700Z,11.00
2023-01-04T02:59:46.930Z,11.10
2023-01-04T03:00:46.991Z,11.40
2023-01-04T03:01:47.092Z,10.40
2023-01-04T03:02:47.108Z,11.20
2023-01-04T03:03:47.066Z,10.70
2023-01-04T03:04:52.547Z,10.60
2023-01-04T03:05:50.815Z,10.70
2023-01-04T03:07:09.531Z,11.40
2023-01-04T03:07:47.055Z,10.50
2023-01-04T03:08:46.895Z,10.20
2023-01-04T03:09:46.805Z,10.70
2023-01-04T03:10:46.835Z,10.60
2023-01-04T03:11:53.583Z,10.80
2023-01-04T03:15:07.572Z,11.10
2023-01-04T03:15:21.003Z,11.10
2023-01-04T03:16:26.105Z,10.90
2023-01-04T03:19:26.673Z,10.80
2023-01-04T03:19:33.381Z,10.20
2023-01-04T03:20:31.561Z,10.30
2023-01-04T03:21:31.441Z,10.00
2023-01-04T03:22:31.476Z,9.90
2023-01-04T03:23:31.391Z,10.10
2023-01-04T03:24:31.704Z,11.00
2023-01-04T03:25:31.370Z,11.10
2023-01-04T03:26:32.807Z,9.90
2023-01-04T03:29:47.934Z,10.30
2023-01-04T03:30:56.404Z,10.30
2023-01-04T03:31:25.514Z,10.30
2023-01-04T03:33:30.651Z,10.10
2023-01-04T03:33:48.925Z,10.00
2023-01-04T03:34:40.511Z,9.90
2023-01-04T03:35:42.991Z,10.30
2023-01-04T03:37:08.666Z,10.30
2023-01-04T03:38:16.285Z,10.00
2023-01-04T03:38:37.968Z,10.70
2023-01-04T03:39:42.013Z,9.50
2023-01-04T03:40:36.118Z,9.20
2023-01-04T03:41:36.528Z,9.50
2023-01-04T03:42:35.924Z,9.50
2023-01-04T03:43:35.337Z,10.00
2023-01-04T03:44:35.732Z,9.60
2023-01-04T03:45:35.251Z,9.30
2023-01-04T03:46:35.313Z,9.60
2023-01-04T03:47:35.251Z,10.00
2023-01-04T03:48:35.315Z,9.50
2023-01-04T03:49:35.207Z,9.60
2023-01-04T03:50:35.597Z,9.70
2023-01-04T03:51:35.237Z,10.10
2023-01-04T03:52:35.186Z,10.10
2023-01-04T03:53:35.208Z,10.10
2023-01-04T03:54:35.171Z,9.30
2023-01-04T03:55:35.154Z,9.50
2023-01-04T03:56:35.170Z,9.40
2023-01-04T03:57:35.108Z,9.30
2023-01-04T03:58:35.166Z,9.50
2023-01-04T03:59:35.348Z,9.20
2023-01-04T04:00:35.148Z,10.10
2023-01-04T04:01:35.160Z,9.80
2023-01-04T04:02:35.063Z,8.80
2023-01-04T04:03:35.194Z,9.70
2023-01-04T04:04:35.052Z,9.90
2023-01-04T04:05:35.024Z,9.30
2023-01-04T04:06:35.061Z,9.70
2023-01-04T04:07:34.970Z,9.60
2023-01-04T04:08:35.058Z,9.70
2023-01-04T04:09:34.957Z,9.00
2023-01-04T04:10:35.008Z,9.90
2023-01-04T04:11:34.939Z,9.40
2023-01-04T04:12:34.924Z,9.10
2023-01-04T04:13:34.951Z,9.50
2023-01-04T04:14:35.126Z,9.70
2023-01-04T04:15:34.903Z,10.20
2023-01-04T04:16:34.903Z,9.40
2023-01-04T04:17:34.875Z,8.90
2023-01-04T04:18:34.875Z,8.80
2023-01-04T04:19:34.830Z,8.60
2023-01-04T04:20:34.993Z,8.70
2023-01-04T04:21:34.807Z,9.10
2023-01-04T04:22:34.872Z,8.90
2023-01-04T04:23:34.835Z,9.20
2023-01-04T04:24:34.835Z,8.80
2023-01-04T04:25:34.768Z,8.50
2023-01-04T04:26:34.811Z,8.40
2023-01-04T04:27:34.740Z,7.90
2023-01-04T04:28:34.717Z,8.80
2023-01-04T04:29:34.732Z,8.50
2023-01-04T04:30:34.718Z,8.60
2023-01-04T04:31:34.838Z,8.30
2023-01-04T04:32:34.704Z,7.90
2023-01-04T04:33:34.662Z,8.00
2023-01-04T04:34:34.623Z,8.60
2023-01-04T04:35:34.650Z,8.00
2023-01-04T04:36:34.649Z,8.80
2023-01-04T04:37:34.615Z,8.20
2023-01-04T04:38:34.623Z,8.30
2023-01-04T04:39:34.609Z,8.80
2023-01-04T04:40:34.624Z,9.80
2023-01-04T04:41:34.604Z,8.40
2023-01-04T04:42:34.751Z,8.60
2023-01-04T04:43:34.570Z,8.10
2023-01-04T04:44:34.498Z,8.20
2023-01-04T04:45:34.522Z,8.60
2023-01-04T04:46:34.516Z,8.40
2023-01-04T04:47:34.514Z,7.80
2023-01-04T04:48:34.691Z,8.00
2023-01-04T04:49:34.500Z,8.40
2023-01-04T04:50:34.463Z,8.40
2023-01-04T04:51:34.426Z,8.50
2023-01-04T04:52:34.439Z,8.40
2023-01-04T04:53:34.456Z,7.50
2023-01-04T04:54:34.401Z,7.80
2023-01-04T04:55:34.370Z,8.10
2023-01-04T04:56:34.373Z,8.20
2023-01-04T04:57:34.367Z,8.10
2023-01-04T04:58:34.356Z,7.90
2023-01-04T04:59:34.370Z,8.60
2023-01-04T05:00:34.320Z,8.20
2023-01-04T05:01:34.404Z,7.90
2023-01-04T05:02:34.426Z,8.10
2023-01-04T05:03:34.354Z,8.30
2023-01-04T05:04:34.261Z,8.40
2023-01-04T05:05:34.278Z,8.30
2023-01-04T05:06:34.229Z,8.30
2023-01-04T05:07:34.246Z,8.80
2023-01-04T05:08:34.217Z,8.70
2023-01-04T05:09:34.193Z,8.50
2023-01-04T05:10:34.203Z,8.90
2023-01-04T05:11:34.188Z,9.30
2023-01-04T05:12:34.175Z,9.20
2023-01-04T05:13:34.142Z,9.10
2023-01-04T05:14:34.145Z,9.00
2023-01-04T05:15:34.140Z,9.10
2023-01-04T05:16:34.172Z,9.00
2023-01-04T05:17:34.082Z,9.30
2023-01-04T05:18:34.356Z,8.70
2023-01-04T05:19:34.134Z,8.60
2023-01-04T05:20:34.049Z,9.40
2023-01-04T05:21:34.038Z,8.60
2023-01-04T05:22:34.082Z,8.40
2023-01-04T05:23:34.047Z,9.10
2023-01-04T05:24:34.018Z,8.20
2023-01-04T05:25:33.994Z,8.60
2023-01-04T05:26:33.999Z,9.10
2023-01-04T05:27:33.974Z,8.90
2023-01-04T05:28:33.956Z,9.20
2023-01-04T05:29:33.945Z,9.40
2023-01-04T05:30:33.928Z,9.20
2023-01-04T05:31:33.984Z,8.90
2023-01-04T05:32:33.897Z,9.20
2023-01-04T05:33:34.185Z,9.60
2023-01-04T05:34:33.877Z,9.90
2023-01-04T05:35:34.126Z,9.90
2023-01-04T05:36:33.836Z,10.60
2023-01-04T05:37:34.101Z,10.20
2023-01-04T05:38:33.841Z,10.50
2023-01-04T05:39:33.832Z,10.40
2023-01-04T05:40:33.805Z,9.90
2023-01-04T05:41:33.781Z,10.30
2023-01-04T05:42:33.780Z,11.00
2023-01-04T05:43:34.096Z,11.00
2023-01-04T05:44:33.754Z,11.30
2023-01-04T05:45:33.793Z,11.60
2023-01-04T05:46:33.772Z,11.80
2023-01-04T05:47:33.843Z,10.90
2023-01-04T05:48:34.204Z,12.00
2023-01-04T05:49:33.679Z,11.90
2023-01-04T05:50:33.665Z,11.60
2023-01-04T05:51:33.966Z,11.90
2023-01-04T05:52:33.648Z,12.50
2023-01-04T05:53:33.692Z,11.60
2023-01-04T05:54:33.710Z,12.40
2023-01-04T05:55:33.607Z,12.20
2023-01-04T05:56:33.592Z,12.00
2023-01-04T05:57:33.635Z,12.90
2023-01-04T05:58:33.803Z,12.60
2023-01-04T05:59:39.225Z,13.20
2023-01-04T06:00:34.576Z,13.20
2023-01-04T06:01:33.700Z,12.90
2023-01-04T06:02:33.594Z,12.90
2023-01-04T06:03:33.605Z,13.40
2023-01-04T06:04:33.470Z,12.60
2023-01-04T06:05:35.158Z,12.90
2023-01-04T06:06:33.451Z,13.50
2023-01-04T06:07:33.499Z,12.70
2023-01-04T06:17:53.369Z,13.30
2023-01-04T06:18:28.127Z,14.30
2023-01-04T06:19:37.714Z,14.10
2023-01-04T06:19:58.257Z,13.20
2023-01-04T06:21:02.733Z,13.40
2023-01-04T06:21:58.345Z,13.10
2023-01-04T06:22:58.058Z,13.00
2023-01-04T06:23:58.092Z,12.90
2023-01-04T06:24:58.012Z,13.50
2023-01-04T06:25:58.031Z,13.70
2023-01-04T06:26:58.093Z,12.60
2023-01-04T06:27:58.013Z,13.30
2023-01-04T06:28:57.976Z,13.70
2023-01-04T06:29:58.045Z,12.60
2023-01-04T06:30:58.051Z,13.30
2023-01-04T06:31:57.966Z,12.90
2023-01-04T06:32:57.926Z,12.50
2023-01-04T06:33:57.930Z,13.50
2023-01-04T06:34:57.890Z,12.20
2023-01-04T06:35:57.884Z,12.30
2023-01-04T06:36:57.926Z,12.50
2023-01-04T06:37:57.864Z,12.80
2023-01-04T06:38:57.849Z,13.60
2023-01-04T06:39:57.832Z,12.60
2023-01-04T06:40:57.804Z,12.30
2023-01-04T06:42:05.471Z,11.00
2023-01-04T06:42:58.795Z,11.90
2023-01-04T06:43:57.794Z,12.50
2023-01-04T06:44:57.764Z,11.80
2023-01-04T06:45:57.786Z,13.20
2023-01-04T06:46:57.980Z,12.10
2023-01-04T06:47:57.723Z,12.10
2023-01-04T06:48:57.713Z,11.60
2023-01-04T06:49:57.908Z,11.70
2023-01-04T06:50:57.725Z,11.50
2023-01-04T06:51:57.680Z,11.90
2023-01-04T06:52:57.680Z,11.00
2023-01-04T06:53:57.718Z,11.20
2023-01-04T06:54:57.664Z,11.20
2023-01-04T06:55:57.612Z,11.30
2023-01-04T06:56:57.594Z,10.70
2023-01-04T06:57:59.705Z,11.40
2023-01-04T06:58:57.584Z,10.90
2023-01-04T06:59:57.677Z,11.30
2023-01-04T07:00:57.633Z,11.90
2023-01-04T07:01:57.886Z,11.20
2023-01-04T07:03:14.014Z,11.50
2023-01-04T07:03:58.744Z,11.60
2023-01-04T07:04:57.552Z,11.90
2023-01-04T07:05:57.516Z,11.90
2023-01-04T07:06:57.731Z,12.30
2023-01-04T07:08:01.179Z,11.80
2023-01-04T07:08:58.474Z,12.20
2023-01-04T07:09:57.465Z,12.70
2023-01-04T07:10:57.424Z,12.60
2023-01-04T07:11:57.457Z,12.60
2023-01-04T07:12:57.409Z,12.50
2023-01-04T07:13:57.398Z,13.20
2023-01-04T07:14:57.364Z,12.40
2023-01-04T07:15:57.404Z,13.20
2023-01-04T07:16:57.372Z,13.40
2023-01-04T07:17:57.376Z,13.30
2023-01-04T07:18:57.373Z,12.50
2023-01-04T07:19:57.391Z,13.70
2023-01-04T07:20:57.310Z,13.20
2023-01-04T07:21:57.514Z,13.20
2023-01-04T07:22:57.257Z,13.60
2023-01-04T07:23:57.255Z,13.00
2023-01-04T07:24:57.249Z,13.40
2023-01-04T07:25:57.219Z,13.40
2023-01-04T07:26:57.464Z,13.80
2023-01-04T07:27:57.181Z,13.20
2023-01-04T07:28:57.268Z,12.80
2023-01-04T07:29:57.161Z,13.00
2023-01-04T07:30:57.199Z,13.10
2023-01-04T07:31:57.136Z,13.00
2023-01-04T07:32:57.111Z,12.90
2023-01-04T07:33:57.123Z,12.70
2023-01-04T07:34:57.105Z,13.10
2023-01-04T07:35:57.073Z,12.70
2023-01-04T07:36:57.121Z,13.00
2023-01-04T07:37:59.032Z,12.50
2023-01-04T07:38:57.061Z,12.70
2023-01-04T07:39:57.047Z,13.30
2023-01-04T07:40:57.322Z,12.10
2023-01-04T07:41:56.999Z,12.70
2023-01-04T07:42:57.396Z,12.60
2023-01-04T07:43:57.242Z,12.20
2023-01-04T07:44:56.967Z,11.70
2023-01-04T07:45:56.978Z,12.40
2023-01-04T07:46:57.014Z,11.50
2023-01-04T07:47:56.945Z,11.10
2023-01-04T07:48:56.974Z,12.80
2023-01-04T07:49:56.941Z,12.40
2023-01-04T07:50:56.890Z,11.60
2023-01-04T07:51:56.882Z,11.10
2023-01-04T07:52:56.870Z,11.80
2023-01-04T07:53:57.158Z,11.70
2023-01-04T07:54:56.977Z,11.50
2023-01-04T07:55:56.838Z,11.70
2023-01-04T07:56:56.827Z,11.50
2023-01-04T07:57:57.117Z,11.90
2023-01-04T07:58:56.820Z,11.40
2023-01-04T07:59:56.775Z,11.30
2023-01-04T08:00:56.766Z,12.10
2023-01-04T08:01:56.860Z,12.00
2023-01-04T08:02:56.928Z,11.60
2023-01-04T08:03:56.759Z,11.50
2023-01-04T08:04:56.826Z,11.80
2023-01-04T08:05:56.699Z,11.80
2023-01-04T08:06:56.680Z,11.20
2023-01-04T08:07:56.680Z,11.00
2023-01-04T08:08:58.350Z,11.20
2023-01-04T08:09:56.660Z,11.50
2023-01-04T08:10:56.631Z,11.00
2023-01-04T08:11:56.748Z,10.10
2023-01-04T08:12:56.576Z,11.30
2023-01-04T08:13:56.586Z,11.30
2023-01-04T08:14:56.569Z,11.30
2023-01-04T08:15:56.844Z,10.70
2023-01-04T08:16:56.576Z,11.40
2023-01-04T08:17:56.542Z,10.30
2023-01-04T08:18:56.587Z,10.10
2023-01-04T08:19:56.512Z,10.30
2023-01-04T08:20:58.600Z,10.00
2023-01-04T08:21:56.516Z,10.40
2023-01-04T08:22:56.520Z,10.50
2023-01-04T08:23:56.483Z,10.20
2023-01-04T08:24:56.533Z,10.10
2023-01-04T08:25:56.444Z,10.60
2023-01-04T08:26:56.434Z,9.80
2023-01-04T08:27:56.694Z,9.60
2023-01-04T08:28:56.419Z,9.00
2023-01-04T08:29:56.636Z,8.70
2023-01-04T08:30:56.441Z,9.10
2023-01-04T08:31:56.401Z,9.40
2023-01-04T08:32:56.595Z,8.30
2023-01-04T08:33:56.354Z,9.20
2023-01-04T08:34:56.384Z,8.50
2023-01-04T08:35:56.315Z,8.50
2023-01-04T08:36:56.383Z,8.40
2023-01-04T08:38:13.094Z,8.20
2023-01-04T08:39:00.462Z,7.50
2023-01-04T08:39:56.306Z,7.00
2023-01-04T08:40:58.685Z,7.90
2023-01-04T08:42:01.732Z,8.00
2023-01-04T08:42:57.205Z,8.10
2023-01-04T08:43:56.243Z,7.00
2023-01-04T08:44:59.491Z,7.20
2023-01-04T08:45:56.335Z,7.10
2023-01-04T08:46:56.478Z,6.80
2023-01-04T08:47:56.302Z,7.30
2023-01-04T08:48:56.157Z,7.40
2023-01-04T08:49:56.206Z,6.80
2023-01-04T08:50:56.149Z,7.00
2023-01-04T08:51:56.117Z,7.10
2023-01-04T08:52:56.102Z,6.40
2023-01-04T08:53:56.117Z,6.50
2023-01-04T08:54:56.087Z,6.30
2023-01-04T08:55:56.038Z,6.60
2023-01-04T08:56:56.039Z,7.20
2023-01-04T08:57:56.007Z,6.70
2023-01-04T08:58:56.025Z,6.40
2023-01-04T08:59:55.994Z,5.80
2023-01-04T09:00:55.961Z,6.10
2023-01-04T09:02:02.704Z,5.60
2023-01-04T09:02:57.174Z,6.00
2023-01-04T09:03:55.954Z,5.80
2023-01-04T09:04:55.965Z,5.10
2023-01-04T09:05:55.900Z,5.80
2023-01-04T09:06:55.909Z,5.60
2023-01-04T09:07:55.917Z,5.10
2023-01-04T09:08:55.917Z,4.80
2023-01-04T09:09:55.846Z,5.30
2023-01-04T09:10:55.855Z,5.10
2023-01-04T09:11:55.839Z,4.80
2023-01-04T09:12:55.836Z,4.90
2023-01-04T09:13:58.329Z,5.40
2023-01-04T09:14:56.787Z,4.70
2023-01-04T09:15:55.842Z,4.90
2023-01-04T09:16:55.748Z,5.40
2023-01-04T09:18:30.508Z,5.30
2023-01-04T09:18:56.886Z,4.50
2023-01-04T09:19:55.720Z,4.60
2023-01-04T09:20:55.974Z,4.80
2023-01-04T09:21:55.812Z,4.60
2023-01-04T09:22:55.991Z,4.60
2023-01-04T09:23:55.715Z,4.20
2023-01-04T09:24:55.665Z,4.60
2023-01-04T09:25:55.660Z,4.20
2023-01-04T09:26:55.676Z,3.70
2023-01-04T09:27:55.889Z,4.30
2023-01-04T09:28:55.708Z,4.40
2023-01-04T09:29:55.577Z,4.80
2023-01-04T09:30:55.671Z,4.40
2023-01-04T09:31:55.690Z,3.80
2023-01-04T09:32:55.568Z,4.20
2023-01-04T09:34:56.531Z,3.70
2023-01-04T09:35:55.508Z,3.60
2023-01-04T09:36:55.504Z,3.90
2023-01-04T09:37:57.476Z,3.50
2023-01-04T09:38:55.520Z,3.80
2023-01-04T09:39:55.458Z,3.50
2023-01-04T09:40:55.436Z,3.40
2023-01-04T09:41:55.466Z,3.40
2023-01-04T09:43:19.998Z,3.70
2023-01-04T09:43:56.435Z,3.90
2023-01-04T09:45:22.580Z,3.20
2023-01-04T09:45:56.377Z,3.10
2023-01-04T09:46:55.514Z,3.60
2023-01-04T09:47:55.409Z,3.10
2023-01-04T09:48:55.385Z,3.10
2023-01-04T09:49:55.350Z,3.70
2023-01-04T09:50:55.301Z,3.60
2023-01-04T09:51:55.297Z,3.50
2023-01-04T09:52:55.296Z,3.50
2023-01-04T09:53:55.585Z,3.60
2023-01-04T09:54:57.627Z,3.70
2023-01-04T09:55:56.269Z,3.70
2023-01-04T09:56:55.492Z,3.20
2023-01-04T09:57:55.223Z,3.20
2023-01-04T09:58:55.239Z,3.90
2023-01-04T09:59:55.198Z,3.60
2023-01-04T10:00:55.263Z,3.70
2023-01-04T10:01:55.309Z,3.30
2023-01-04T10:02:55.316Z,3.20
2023-01-04T10:03:55.170Z,3.50
2023-01-04T10:04:55.139Z,3.40
2023-01-04T10:05:55.122Z,3.30
2023-01-04T10:06:59.421Z,3.50
2023-01-04T10:07:56.119Z,3.60
2023-01-04T10:08:55.095Z,4.40
2023-01-04T10:09:55.197Z,3.90
2023-01-04T10:10:55.141Z,3.40
2023-01-04T10:11:55.034Z,3.90
2023-01-04T10:12:59.639Z,4.30
2023-01-04T10:13:56.096Z,6.10
2023-01-04T10:14:55.009Z,6.40
2023-01-04T10:15:55.148Z,4.30
2023-01-04T10:17:23.574Z,4.20
2023-01-04T10:19:16.997Z,3.80
2023-01-04T10:19:28.971Z,3.80
2023-01-04T10:21:56.146Z,3.50
2023-01-04T10:22:54.938Z,3.80
2023-01-04T10:23:55.028Z,4.40
2023-01-04T10:24:54.899Z,4.00
2023-01-04T10:25:55.154Z,3.80
2023-01-04T10:26:54.968Z,3.60
2023-01-04T10:27:54.855Z,3.40
2023-01-04T10:28:54.963Z,3.40
2023-01-04T10:29:54.785Z,3.50
2023-01-04T10:30:54.796Z,3.30
2023-01-04T10:31:54.794Z,2.80
2023-01-04T10:32:55.188Z,3.00
2023-01-04T10:33:54.799Z,3.30
2023-01-04T10:34:54.724Z,3.00
2023-01-04T10:35:54.765Z,4.00
2023-01-04T10:36:54.725Z,3.00
2023-01-04T10:37:54.689Z,3.10
2023-01-04T10:38:54.698Z,3.10
2023-01-04T10:39:54.694Z,2.70
2023-01-04T10:40:54.668Z,3.00
2023-01-04T10:41:54.623Z,2.90
2023-01-04T10:42:54.742Z,3.40
2023-01-04T10:44:10.598Z,3.20
2023-01-04T10:44:55.599Z,2.80
2023-01-04T10:45:54.578Z,3.40
2023-01-04T10:46:54.625Z,3.30
2023-01-04T10:47:54.574Z,2.80
2023-01-04T10:48:54.559Z,2.90
2023-01-04T10:49:54.627Z,2.90
2023-01-04T10:50:55.276Z,3.00
2023-01-04T10:51:54.511Z,3.20
2023-01-04T10:52:54.518Z,2.90
2023-01-04T10:53:54.769Z,3.00
2023-01-04T10:54:54.510Z,3.00
2023-01-04T10:56:24.983Z,3.10
2023-01-04T10:56:58.097Z,2.90
2023-01-04T10:57:54.807Z,3.10
2023-01-04T10:58:54.438Z,3.20
2023-01-04T10:59:54.551Z,3.10
2023-01-04T11:00:54.455Z,3.70
2023-01-04T11:01:54.835Z,3.60
2023-01-04T11:02:54.599Z,3.10
2023-01-04T11:03:54.499Z,3.40
2023-01-04T11:04:54.391Z,3.10
2023-01-04T11:05:54.363Z,3.10
2023-01-04T11:06:54.289Z,3.60
2023-01-04T11:07:54.337Z,3.20
2023-01-04T11:08:54.277Z,3.40
2023-01-04T11:09:54.257Z,3.20
2023-01-04T11:10:54.326Z,3.50
2023-01-04T11:11:54.236Z,3.60
2023-01-04T11:12:54.275Z,3.30
2023-01-04T11:13:54.232Z,3.60
2023-01-04T11:14:54.174Z,3.60
2023-01-04T11:15:54.293Z,3.50
2023-01-04T11:16:54.220Z,3.20
2023-01-04T11:17:54.179Z,3.60
2023-01-04T11:18:54.289Z,4.10
2023-01-04T11:19:54.170Z,3.80
2023-01-04T11:20:54.276Z,4.30
2023-01-04T11:21:55.360Z,3.40
2023-01-04T11:22:54.166Z,4.20
2023-01-04T11:23:56.562Z,4.00
2023-01-04T11:25:33.140Z,3.60
2023-01-04T11:25:56.311Z,4.10
2023-01-04T11:26:54.062Z,4.00
2023-01-04T11:27:54.095Z,3.90
2023-01-04T11:28:54.308Z,4.20
2023-01-04T11:29:54.158Z,3.60
2023-01-04T11:30:53.995Z,3.80
2023-01-04T11:31:54.129Z,3.70
2023-01-04T11:32:53.993Z,4.60
2023-01-04T11:33:53.952Z,3.60
2023-01-04T11:34:53.975Z,3.60
2023-01-04T11:35:54.013Z,4.00
2023-01-04T11:36:53.890Z,3.80
2023-01-04T11:37:53.984Z,3.90
2023-01-04T11:38:53.950Z,3.50
2023-01-04T11:39:53.988Z,3.90
2023-01-04T11:40:53.942Z,3.80
2023-01-04T11:41:57.472Z,4.00
2023-01-04T11:42:54.824Z,3.50
2023-01-04T11:43:54.014Z,3.20
2023-01-04T11:44:53.972Z,3.80
2023-01-04T11:45:54.074Z,4.00
2023-01-04T11:46:53.758Z,3.60
2023-01-04T11:47:53.784Z,3.60
2023-01-04T11:48:53.761Z,3.80
2023-01-04T11:49:53.758Z,3.60
2023-01-04T11:50:54.011Z,4.00
2023-01-04T11:51:54.046Z,4.00
2023-01-04T11:52:53.706Z,4.30
2023-01-04T11:53:53.763Z,3.80
2023-01-04T11:54:53.907Z,3.40
2023-01-04T11:55:53.750Z,3.50
2023-01-04T11:56:53.740Z,4.00
2023-01-04T11:57:53.789Z,4.40
2023-01-04T11:58:53.701Z,4.30
2023-01-04T11:59:53.651Z,4.30
2023-01-04T12:00:54.201Z,4.70
2023-01-04T12:01:53.913Z,4.10
2023-01-04T12:03:02.171Z,3.90
2023-01-04T12:03:54.552Z,4.00
2023-01-04T12:04:53.523Z,3.50
2023-01-04T12:05:53.521Z,3.50
2023-01-04T12:06:53.790Z,3.60
2023-01-04T12:07:53.499Z,4.00
2023-01-04T12:08:53.535Z,4.30
2023-01-04T12:09:53.563Z,3.90
2023-01-04T12:10:53.539Z,3.70
2023-01-04T12:11:53.721Z,3.80
2023-01-04T12:12:53.520Z,3.60
2023-01-04T12:13:53.458Z,3.80
2023-01-04T12:14:53.469Z,3.60
2023-01-04T12:15:53.453Z,4.20
2023-01-04T12:16:53.397Z,3.80
2023-01-04T12:17:53.347Z,3.80
2023-01-04T12:18:53.499Z,4.00
2023-01-04T12:19:53.367Z,3.50
2023-01-04T12:20:53.312Z,3.70
2023-01-04T12:21:53.598Z,3.30
2023-01-04T12:22:53.328Z,3.40
2023-01-04T12:23:53.601Z,3.60
2023-01-04T12:25:00.045Z,3.60
2023-01-04T12:25:54.237Z,3.90
2023-01-04T12:26:53.245Z,3.60
2023-01-04T12:27:53.300Z,3.60
2023-01-04T12:28:53.501Z,3.30
2023-01-04T12:29:53.579Z,3.30
2023-01-04T12:30:53.253Z,3.50
2023-01-04T12:31:53.177Z,3.40
2023-01-04T12:32:53.166Z,3.10
2023-01-04T12:33:53.159Z,3.80
2023-01-04T12:34:53.438Z,3.70
2023-01-04T12:35:53.120Z,3.30
2023-01-04T12:36:53.335Z,3.50
2023-01-04T12:37:53.079Z,3.30
2023-01-04T12:38:53.137Z,3.00
2023-01-04T12:39:53.072Z,3.30
2023-01-04T12:40:53.065Z,3.20
2023-01-04T12:41:53.050Z,3.40
2023-01-04T12:42:53.205Z,3.00
2023-01-04T12:43:53.056Z,3.20
2023-01-04T12:44:53.308Z,3.50
2023-01-04T12:45:53.176Z,3.20
2023-01-04T12:46:53.057Z,3.00
2023-01-04T12:47:52.951Z,3.10
2023-01-04T12:48:52.955Z,2.80
2023-01-04T12:49:53.240Z,2.80
2023-01-04T12:51:07.328Z,3.00
2023-01-04T12:52:29.445Z,3.00
2023-01-04T12:53:53.872Z,3.40
2023-01-04T12:54:52.853Z,3.10
2023-01-04T12:55:52.850Z,3.20
2023-01-04T12:56:52.815Z,2.80
2023-01-04T12:57:52.809Z,3.00
2023-01-04T12:59:24.331Z,2.80
2023-01-04T12:59:53.798Z,2.70
2023-01-04T13:00:52.777Z,2.90
2023-01-04T13:01:52.888Z,3.10
2023-01-04T13:02:53.152Z,2.90
2023-01-04T13:03:52.788Z,2.70
2023-01-04T13:05:09.275Z,3.00
2023-01-04T13:05:56.442Z,3.20
2023-01-04T13:06:52.713Z,3.00
2023-01-04T13:07:52.671Z,2.90
2023-01-04T13:08:52.782Z,3.00
2023-01-04T13:09:52.703Z,3.10
2023-01-04T13:10:52.656Z,2.70
2023-01-04T13:11:53.440Z,2.80
2023-01-04T13:12:52.662Z,2.80
2023-01-04T13:13:52.621Z,2.70
2023-01-04T13:14:52.601Z,2.90
2023-01-04T13:15:52.553Z,3.00
2023-01-04T13:16:52.856Z,2.60
2023-01-04T13:17:52.563Z,2.50
2023-01-04T13:18:52.546Z,2.70
2023-01-04T13:19:52.527Z,2.60
2023-01-04T13:20:52.509Z,2.70
2023-01-04T13:21:52.548Z,2.60
2023-01-04T13:22:52.542Z,2.80
2023-01-04T13:23:52.485Z,2.60